sensor_id;sensor_type;location;lat;lon;timestamp;P1;durP1;ratioP1;P2;durP2;ratioP2
21315;SDS011;10817;55.820;13.030;2022-12-18T00:02:07;17.67;;;9.80;;
21315;SDS011;10817;55.820;13.030;2022-12-18T00:04:37;19.52;;;9.13;;
21315;SDS011;10817;55.820;13.030;2022-12-18T00:07:04;21.88;;;10.38;;
21315;SDS011;10817;55.820;13.030;2022-12-18T00:09:31;17.20;;;9.25;;
21315;SDS011;10817;55.820;13.030;2022-12-18T00:11:57;19.02;;;9.32;;
21315;SDS011;10817;55.820;13.030;2022-12-18T00:14:26;14.55;;;8.60;;
21315;SDS011;10817;55.820;13.030;2022-12-18T00:16:52;17.75;;;8.35;;
21315;SDS011;10817;55.820;13.030;2022-12-18T00:19:19;17.85;;;8.50;;
21315;SDS011;10817;55.820;13.030;2022-12-18T00:21:46;16.38;;;8.20;;
21315;SDS011;10817;55.820;13.030;2022-12-18T00:24:13;19.95;;;8.00;;
21315;SDS011;10817;55.820;13.030;2022-12-18T00:26:41;12.30;;;7.40;;
21315;SDS011;10817;55.820;13.030;2022-12-18T00:29:11;15.52;;;8.07;;
21315;SDS011;10817;55.820;13.030;2022-12-18T00:31:41;15.05;;;7.10;;
21315;SDS011;10817;55.820;13.030;2022-12-18T00:34:09;19.08;;;8.20;;
21315;SDS011;10817;55.820;13.030;2022-12-18T00:36:39;17.20;;;7.82;;
21315;SDS011;10817;55.820;13.030;2022-12-18T00:39:06;15.38;;;7.90;;
21315;SDS011;10817;55.820;13.030;2022-12-18T00:41:33;18.25;;;8.25;;
21315;SDS011;10817;55.820;13.030;2022-12-18T00:44:18;14.75;;;7.40;;
21315;SDS011;10817;55.820;13.030;2022-12-18T00:46:46;15.80;;;6.47;;
21315;SDS011;10817;55.820;13.030;2022-12-18T00:49:14;16.77;;;7.35;;
21315;SDS011;10817;55.820;13.030;2022-12-18T00:51:41;15.57;;;8.48;;
21315;SDS011;10817;55.820;13.030;2022-12-18T00:54:09;19.80;;;8.23;;
21315;SDS011;10817;55.820;13.030;2022-12-18T00:56:37;12.82;;;7.72;;
21315;SDS011;10817;55.820;13.030;2022-12-18T00:59:04;11.02;;;7.32;;
21315;SDS011;10817;55.820;13.030;2022-12-18T01:01:32;16.25;;;7.78;;
21315;SDS011;10817;55.820;13.030;2022-12-18T01:04:02;15.93;;;7.35;;
21315;SDS011;10817;55.820;13.030;2022-12-18T01:06:29;14.25;;;7.68;;
21315;SDS011;10817;55.820;13.030;2022-12-18T01:08:56;13.40;;;7.25;;
21315;SDS011;10817;55.820;13.030;2022-12-18T01:11:23;16.67;;;7.10;;
21315;SDS011;10817;55.820;13.030;2022-12-18T01:13:51;13.75;;;7.05;;
21315;SDS011;10817;55.820;13.030;2022-12-18T01:16:21;15.57;;;7.53;;
21315;SDS011;10817;55.820;13.030;2022-12-18T01:18:50;11.55;;;7.07;;
21315;SDS011;10817;55.820;13.030;2022-12-18T01:21:21;13.63;;;6.65;;
21315;SDS011;10817;55.820;13.030;2022-12-18T01:23:50;12.15;;;6.60;;
21315;SDS011;10817;55.820;13.030;2022-12-18T01:26:19;11.32;;;6.82;;
21315;SDS011;10817;55.820;13.030;2022-12-18T01:28:46;11.48;;;6.35;;
21315;SDS011;10817;55.820;13.030;2022-12-18T01:31:15;13.27;;;7.40;;
21315;SDS011;10817;55.820;13.030;2022-12-18T01:33:48;12.13;;;6.75;;
21315;SDS011;10817;55.820;13.030;2022-12-18T01:36:17;15.68;;;7.00;;
21315;SDS011;10817;55.820;13.030;2022-12-18T01:38:47;15.95;;;7.60;;
21315;SDS011;10817;55.820;13.030;2022-12-18T01:41:16;13.45;;;6.47;;
21315;SDS011;10817;55.820;13.030;2022-12-18T01:43:45;11.93;;;6.78;;
21315;SDS011;10817;55.820;13.030;2022-12-18T01:46:18;14.23;;;7.18;;
21315;SDS011;10817;55.820;13.030;2022-12-18T01:48:46;13.55;;;6.95;;
21315;SDS011;10817;55.820;13.030;2022-12-18T01:51:15;15.85;;;7.45;;
21315;SDS011;10817;55.820;13.030;2022-12-18T01:53:43;14.07;;;7.47;;
21315;SDS011;10817;55.820;13.030;2022-12-18T01:56:14;15.48;;;7.85;;
21315;SDS011;10817;55.820;13.030;2022-12-18T01:58:45;13.73;;;7.88;;
21315;SDS011;10817;55.820;13.030;2022-12-18T02:01:20;16.45;;;8.00;;
21315;SDS011;10817;55.820;13.030;2022-12-18T02:03:49;19.48;;;8.52;;
21315;SDS011;10817;55.820;13.030;2022-12-18T02:06:18;17.10;;;8.43;;
21315;SDS011;10817;55.820;13.030;2022-12-18T02:08:54;16.35;;;7.93;;
21315;SDS011;10817;55.820;13.030;2022-12-18T02:11:35;15.38;;;7.93;;
21315;SDS011;10817;55.820;13.030;2022-12-18T02:14:15;17.15;;;8.95;;
21315;SDS011;10817;55.820;13.030;2022-12-18T02:16:49;16.83;;;7.07;;
21315;SDS011;10817;55.820;13.030;2022-12-18T02:19:37;14.15;;;8.05;;
21315;SDS011;10817;55.820;13.030;2022-12-18T02:22:19;13.00;;;7.28;;
21315;SDS011;10817;55.820;13.030;2022-12-18T02:24:54;14.75;;;7.75;;
21315;SDS011;10817;55.820;13.030;2022-12-18T02:27:32;11.98;;;7.72;;
21315;SDS011;10817;55.820;13.030;2022-12-18T02:30:02;12.05;;;6.97;;
21315;SDS011;10817;55.820;13.030;2022-12-18T02:32:32;12.23;;;6.57;;
21315;SDS011;10817;55.820;13.030;2022-12-18T02:35:03;16.42;;;7.20;;
21315;SDS011;10817;55.820;13.030;2022-12-18T02:37:33;20.15;;;6.75;;
21315;SDS011;10817;55.820;13.030;2022-12-18T02:40:04;11.68;;;6.75;;
21315;SDS011;10817;55.820;13.030;2022-12-18T02:42:37;11.25;;;6.40;;
21315;SDS011;10817;55.820;13.030;2022-12-18T02:45:06;14.38;;;7.10;;
21315;SDS011;10817;55.820;13.030;2022-12-18T02:47:36;12.55;;;6.07;;
21315;SDS011;10817;55.820;13.030;2022-12-18T02:50:07;14.30;;;6.68;;
21315;SDS011;10817;55.820;13.030;2022-12-18T02:52:41;14.73;;;7.18;;
21315;SDS011;10817;55.820;13.030;2022-12-18T02:55:20;12.82;;;7.25;;
21315;SDS011;10817;55.820;13.030;2022-12-18T02:58:05;11.38;;;6.60;;
21315;SDS011;10817;55.820;13.030;2022-12-18T03:00:41;15.52;;;6.90;;
21315;SDS011;10817;55.820;13.030;2022-12-18T03:03:16;15.45;;;7.13;;
21315;SDS011;10817;55.820;13.030;2022-12-18T03:05:52;10.55;;;6.40;;
21315;SDS011;10817;55.820;13.030;2022-12-18T03:08:24;14.57;;;7.32;;
21315;SDS011;10817;55.820;13.030;2022-12-18T03:10:56;16.92;;;7.20;;
21315;SDS011;10817;55.820;13.030;2022-12-18T03:13:29;10.40;;;6.70;;
21315;SDS011;10817;55.820;13.030;2022-12-18T03:16:01;16.55;;;6.25;;
21315;SDS011;10817;55.820;13.030;2022-12-18T03:18:33;11.05;;;6.65;;
21315;SDS011;10817;55.820;13.030;2022-12-18T03:21:05;14.57;;;6.70;;
21315;SDS011;10817;55.820;13.030;2022-12-18T03:23:36;12.65;;;5.85;;
21315;SDS011;10817;55.820;13.030;2022-12-18T03:26:09;16.15;;;6.63;;
21315;SDS011;10817;55.820;13.030;2022-12-18T03:28:42;10.77;;;6.38;;
21315;SDS011;10817;55.820;13.030;2022-12-18T03:31:13;12.13;;;6.13;;
21315;SDS011;10817;55.820;13.030;2022-12-18T03:33:41;14.30;;;6.82;;
21315;SDS011;10817;55.820;13.030;2022-12-18T03:36:13;11.77;;;6.30;;
21315;SDS011;10817;55.820;13.030;2022-12-18T03:38:40;13.85;;;6.70;;
21315;SDS011;10817;55.820;13.030;2022-12-18T03:41:11;11.27;;;5.70;;
21315;SDS011;10817;55.820;13.030;2022-12-18T03:44:19;17.13;;;6.00;;
21315;SDS011;10817;55.820;13.030;2022-12-18T03:46:54;12.20;;;6.63;;
21315;SDS011;10817;55.820;13.030;2022-12-18T03:49:35;13.10;;;5.93;;
21315;SDS011;10817;55.820;13.030;2022-12-18T03:52:07;10.57;;;5.35;;
21315;SDS011;10817;55.820;13.030;2022-12-18T03:54:39;11.57;;;6.07;;
21315;SDS011;10817;55.820;13.030;2022-12-18T03:57:13;13.32;;;5.60;;
21315;SDS011;10817;55.820;13.030;2022-12-18T03:59:44;10.63;;;5.88;;
21315;SDS011;10817;55.820;13.030;2022-12-18T04:02:17;11.95;;;5.40;;
21315;SDS011;10817;55.820;13.030;2022-12-18T04:04:45;11.77;;;6.30;;
21315;SDS011;10817;55.820;13.030;2022-12-18T04:07:16;10.95;;;5.63;;
21315;SDS011;10817;55.820;13.030;2022-12-18T04:09:44;9.50;;;5.13;;
21315;SDS011;10817;55.820;13.030;2022-12-18T04:12:13;9.60;;;5.78;;
21315;SDS011;10817;55.820;13.030;2022-12-18T04:14:41;12.45;;;6.00;;
21315;SDS011;10817;55.820;13.030;2022-12-18T04:17:10;15.40;;;7.28;;
21315;SDS011;10817;55.820;13.030;2022-12-18T04:19:37;16.88;;;6.72;;
21315;SDS011;10817;55.820;13.030;2022-12-18T04:22:04;18.38;;;7.25;;
21315;SDS011;10817;55.820;13.030;2022-12-18T04:24:37;15.48;;;7.30;;
21315;SDS011;10817;55.820;13.030;2022-12-18T04:27:14;11.98;;;6.35;;
21315;SDS011;10817;55.820;13.030;2022-12-18T04:29:46;15.70;;;7.13;;
21315;SDS011;10817;55.820;13.030;2022-12-18T04:32:15;12.35;;;7.03;;
21315;SDS011;10817;55.820;13.030;2022-12-18T04:34:43;15.43;;;7.35;;
21315;SDS011;10817;55.820;13.030;2022-12-18T04:37:10;12.15;;;7.07;;
21315;SDS011;10817;55.820;13.030;2022-12-18T04:39:38;18.95;;;7.25;;
21315;SDS011;10817;55.820;13.030;2022-12-18T04:42:11;16.33;;;7.60;;
21315;SDS011;10817;55.820;13.030;2022-12-18T04:44:38;14.45;;;6.72;;
21315;SDS011;10817;55.820;13.030;2022-12-18T04:47:05;9.35;;;6.18;;
21315;SDS011;10817;55.820;13.030;2022-12-18T04:49:33;15.50;;;7.40;;
21315;SDS011;10817;55.820;13.030;2022-12-18T04:52:02;19.25;;;7.55;;
21315;SDS011;10817;55.820;13.030;2022-12-18T04:54:28;15.82;;;6.72;;
21315;SDS011;10817;55.820;13.030;2022-12-18T04:56:55;14.50;;;6.80;;
21315;SDS011;10817;55.820;13.030;2022-12-18T04:59:22;14.43;;;7.10;;
21315;SDS011;10817;55.820;13.030;2022-12-18T05:01:49;13.77;;;6.28;;
21315;SDS011;10817;55.820;13.030;2022-12-18T05:04:16;10.18;;;6.20;;
21315;SDS011;10817;55.820;13.030;2022-12-18T05:06:44;12.27;;;6.03;;
21315;SDS011;10817;55.820;13.030;2022-12-18T05:09:11;12.73;;;5.97;;
21315;SDS011;10817;55.820;13.030;2022-12-18T05:11:38;19.48;;;7.28;;
21315;SDS011;10817;55.820;13.030;2022-12-18T05:14:05;15.90;;;7.00;;
21315;SDS011;10817;55.820;13.030;2022-12-18T05:16:31;16.23;;;6.93;;
21315;SDS011;10817;55.820;13.030;2022-12-18T05:18:59;14.02;;;7.07;;
21315;SDS011;10817;55.820;13.030;2022-12-18T05:21:26;11.85;;;6.78;;
21315;SDS011;10817;55.820;13.030;2022-12-18T05:23:54;14.38;;;8.27;;
21315;SDS011;10817;55.820;13.030;2022-12-18T05:26:20;18.13;;;8.38;;
21315;SDS011;10817;55.820;13.030;2022-12-18T05:28:48;20.52;;;8.02;;
21315;SDS011;10817;55.820;13.030;2022-12-18T05:31:15;17.38;;;9.43;;
21315;SDS011;10817;55.820;13.030;2022-12-18T05:33:42;16.35;;;7.38;;
21315;SDS011;10817;55.820;13.030;2022-12-18T05:36:09;19.40;;;8.73;;
21315;SDS011;10817;55.820;13.030;2022-12-18T05:38:36;20.33;;;9.13;;
21315;SDS011;10817;55.820;13.030;2022-12-18T05:41:06;19.33;;;8.23;;
21315;SDS011;10817;55.820;13.030;2022-12-18T05:43:34;18.25;;;7.13;;
21315;SDS011;10817;55.820;13.030;2022-12-18T05:46:03;21.73;;;9.63;;
21315;SDS011;10817;55.820;13.030;2022-12-18T05:48:31;20.15;;;8.20;;
21315;SDS011;10817;55.820;13.030;2022-12-18T05:51:03;16.80;;;8.13;;
21315;SDS011;10817;55.820;13.030;2022-12-18T05:53:31;17.20;;;8.32;;
21315;SDS011;10817;55.820;13.030;2022-12-18T05:55:59;16.27;;;8.13;;
21315;SDS011;10817;55.820;13.030;2022-12-18T05:58:29;23.38;;;10.02;;
21315;SDS011;10817;55.820;13.030;2022-12-18T06:00:56;16.20;;;8.75;;
21315;SDS011;10817;55.820;13.030;2022-12-18T06:03:23;19.55;;;8.93;;
21315;SDS011;10817;55.820;13.030;2022-12-18T06:05:50;18.75;;;8.60;;
21315;SDS011;10817;55.820;13.030;2022-12-18T06:08:17;18.00;;;9.25;;
21315;SDS011;10817;55.820;13.030;2022-12-18T06:10:49;16.92;;;8.95;;
21315;SDS011;10817;55.820;13.030;2022-12-18T06:13:17;19.33;;;9.85;;
21315;SDS011;10817;55.820;13.030;2022-12-18T06:15:46;17.80;;;9.50;;
21315;SDS011;10817;55.820;13.030;2022-12-18T06:18:13;20.02;;;9.50;;
21315;SDS011;10817;55.820;13.030;2022-12-18T06:20:40;19.40;;;8.80;;
21315;SDS011;10817;55.820;13.030;2022-12-18T06:23:07;15.00;;;8.00;;
21315;SDS011;10817;55.820;13.030;2022-12-18T06:25:36;13.75;;;7.63;;
21315;SDS011;10817;55.820;13.030;2022-12-18T06:28:05;14.50;;;8.13;;
21315;SDS011;10817;55.820;13.030;2022-12-18T06:30:32;16.88;;;8.40;;
21315;SDS011;10817;55.820;13.030;2022-12-18T06:33:00;19.33;;;8.23;;
21315;SDS011;10817;55.820;13.030;2022-12-18T06:35:27;18.60;;;8.32;;
21315;SDS011;10817;55.820;13.030;2022-12-18T06:37:54;17.60;;;8.75;;
21315;SDS011;10817;55.820;13.030;2022-12-18T06:40:21;19.33;;;9.40;;
21315;SDS011;10817;55.820;13.030;2022-12-18T06:42:48;20.58;;;9.38;;
21315;SDS011;10817;55.820;13.030;2022-12-18T06:45:15;29.00;;;9.98;;
21315;SDS011;10817;55.820;13.030;2022-12-18T06:47:42;22.80;;;10.13;;
21315;SDS011;10817;55.820;13.030;2022-12-18T06:50:11;20.20;;;10.93;;
21315;SDS011;10817;55.820;13.030;2022-12-18T06:52:38;24.88;;;11.02;;
21315;SDS011;10817;55.820;13.030;2022-12-18T06:55:09;15.73;;;8.68;;
21315;SDS011;10817;55.820;13.030;2022-12-18T06:57:36;21.67;;;9.77;;
21315;SDS011;10817;55.820;13.030;2022-12-18T07:00:04;18.85;;;9.00;;
21315;SDS011;10817;55.820;13.030;2022-12-18T07:02:32;19.23;;;8.40;;
21315;SDS011;10817;55.820;13.030;2022-12-18T07:05:00;20.48;;;8.60;;
21315;SDS011;10817;55.820;13.030;2022-12-18T07:07:28;19.63;;;7.93;;
21315;SDS011;10817;55.820;13.030;2022-12-18T07:09:55;23.65;;;8.70;;
21315;SDS011;10817;55.820;13.030;2022-12-18T07:12:22;21.90;;;9.60;;
21315;SDS011;10817;55.820;13.030;2022-12-18T07:14:49;19.70;;;9.57;;
21315;SDS011;10817;55.820;13.030;2022-12-18T07:17:15;22.52;;;9.02;;
21315;SDS011;10817;55.820;13.030;2022-12-18T07:19:42;18.23;;;10.02;;
21315;SDS011;10817;55.820;13.030;2022-12-18T07:22:09;20.02;;;9.93;;
21315;SDS011;10817;55.820;13.030;2022-12-18T07:24:37;16.08;;;8.55;;
21315;SDS011;10817;55.820;13.030;2022-12-18T07:27:05;18.65;;;9.48;;
21315;SDS011;10817;55.820;13.030;2022-12-18T07:29:32;22.30;;;10.02;;
21315;SDS011;10817;55.820;13.030;2022-12-18T07:31:59;17.70;;;8.98;;
21315;SDS011;10817;55.820;13.030;2022-12-18T07:34:26;20.50;;;10.02;;
21315;SDS011;10817;55.820;13.030;2022-12-18T07:36:53;22.27;;;9.55;;
21315;SDS011;10817;55.820;13.030;2022-12-18T07:39:20;16.05;;;8.18;;
21315;SDS011;10817;55.820;13.030;2022-12-18T07:41:48;18.85;;;8.25;;
21315;SDS011;10817;55.820;13.030;2022-12-18T07:44:38;19.05;;;8.70;;
21315;SDS011;10817;55.820;13.030;2022-12-18T07:47:05;18.00;;;9.07;;
21315;SDS011;10817;55.820;13.030;2022-12-18T07:49:32;15.65;;;8.88;;
21315;SDS011;10817;55.820;13.030;2022-12-18T07:51:59;17.50;;;9.57;;
21315;SDS011;10817;55.820;13.030;2022-12-18T07:54:26;19.00;;;9.52;;
21315;SDS011;10817;55.820;13.030;2022-12-18T07:56:55;21.15;;;10.07;;
21315;SDS011;10817;55.820;13.030;2022-12-18T07:59:23;18.38;;;9.35;;
21315;SDS011;10817;55.820;13.030;2022-12-18T08:01:51;21.40;;;9.93;;
21315;SDS011;10817;55.820;13.030;2022-12-18T08:04:18;17.65;;;10.02;;
21315;SDS011;10817;55.820;13.030;2022-12-18T08:06:45;23.45;;;10.68;;
21315;SDS011;10817;55.820;13.030;2022-12-18T08:09:12;23.42;;;11.15;;
21315;SDS011;10817;55.820;13.030;2022-12-18T08:11:39;19.40;;;9.95;;
21315;SDS011;10817;55.820;13.030;2022-12-18T08:14:07;19.98;;;10.48;;
21315;SDS011;10817;55.820;13.030;2022-12-18T08:16:35;19.75;;;9.60;;
21315;SDS011;10817;55.820;13.030;2022-12-18T08:19:02;19.35;;;10.23;;
21315;SDS011;10817;55.820;13.030;2022-12-18T08:21:29;21.75;;;11.30;;
21315;SDS011;10817;55.820;13.030;2022-12-18T08:23:57;22.48;;;10.98;;
21315;SDS011;10817;55.820;13.030;2022-12-18T08:26:26;25.02;;;10.43;;
21315;SDS011;10817;55.820;13.030;2022-12-18T08:28:56;21.17;;;10.77;;
21315;SDS011;10817;55.820;13.030;2022-12-18T08:31:26;28.38;;;11.20;;
21315;SDS011;10817;55.820;13.030;2022-12-18T08:33:53;20.52;;;10.45;;
21315;SDS011;10817;55.820;13.030;2022-12-18T08:36:21;23.73;;;10.48;;
21315;SDS011;10817;55.820;13.030;2022-12-18T08:38:49;19.85;;;9.40;;
21315;SDS011;10817;55.820;13.030;2022-12-18T08:41:17;23.88;;;11.32;;
21315;SDS011;10817;55.820;13.030;2022-12-18T08:43:45;25.38;;;11.27;;
21315;SDS011;10817;55.820;13.030;2022-12-18T08:46:32;22.92;;;10.20;;
21315;SDS011;10817;55.820;13.030;2022-12-18T08:49:01;24.08;;;11.05;;
21315;SDS011;10817;55.820;13.030;2022-12-18T08:51:28;29.55;;;12.38;;
21315;SDS011;10817;55.820;13.030;2022-12-18T08:53:55;25.52;;;10.82;;
21315;SDS011;10817;55.820;13.030;2022-12-18T08:56:22;29.80;;;12.18;;
21315;SDS011;10817;55.820;13.030;2022-12-18T08:58:50;22.48;;;11.38;;
21315;SDS011;10817;55.820;13.030;2022-12-18T09:01:18;24.95;;;11.10;;
21315;SDS011;10817;55.820;13.030;2022-12-18T09:03:49;23.88;;;12.45;;
21315;SDS011;10817;55.820;13.030;2022-12-18T09:06:17;24.80;;;12.48;;
21315;SDS011;10817;55.820;13.030;2022-12-18T09:08:44;28.20;;;12.68;;
21315;SDS011;10817;55.820;13.030;2022-12-18T09:11:13;29.45;;;12.93;;
21315;SDS011;10817;55.820;13.030;2022-12-18T09:13:41;29.98;;;13.55;;
21315;SDS011;10817;55.820;13.030;2022-12-18T09:16:08;29.92;;;12.60;;
21315;SDS011;10817;55.820;13.030;2022-12-18T09:18:34;27.27;;;13.05;;
21315;SDS011;10817;55.820;13.030;2022-12-18T09:21:08;33.42;;;14.13;;
21315;SDS011;10817;55.820;13.030;2022-12-18T09:23:36;26.30;;;12.73;;
21315;SDS011;10817;55.820;13.030;2022-12-18T09:26:03;29.48;;;13.88;;
21315;SDS011;10817;55.820;13.030;2022-12-18T09:28:30;28.13;;;13.52;;
21315;SDS011;10817;55.820;13.030;2022-12-18T09:30:57;29.27;;;13.32;;
21315;SDS011;10817;55.820;13.030;2022-12-18T09:33:24;25.17;;;13.48;;
21315;SDS011;10817;55.820;13.030;2022-12-18T09:35:50;29.25;;;13.20;;
21315;SDS011;10817;55.820;13.030;2022-12-18T09:38:19;33.22;;;13.65;;
21315;SDS011;10817;55.820;13.030;2022-12-18T09:40:48;30.60;;;12.15;;
21315;SDS011;10817;55.820;13.030;2022-12-18T09:43:17;24.45;;;11.95;;
21315;SDS011;10817;55.820;13.030;2022-12-18T09:45:49;25.30;;;12.43;;
21315;SDS011;10817;55.820;13.030;2022-12-18T09:48:22;26.65;;;12.45;;
21315;SDS011;10817;55.820;13.030;2022-12-18T09:50:52;25.30;;;12.45;;
21315;SDS011;10817;55.820;13.030;2022-12-18T09:53:26;28.27;;;13.02;;
21315;SDS011;10817;55.820;13.030;2022-12-18T09:55:58;26.60;;;11.63;;
21315;SDS011;10817;55.820;13.030;2022-12-18T09:58:29;24.98;;;11.95;;
21315;SDS011;10817;55.820;13.030;2022-12-18T10:00:59;24.42;;;10.98;;
21315;SDS011;10817;55.820;13.030;2022-12-18T10:03:26;27.27;;;12.25;;
21315;SDS011;10817;55.820;13.030;2022-12-18T10:05:56;20.92;;;10.63;;
21315;SDS011;10817;55.820;13.030;2022-12-18T10:08:32;27.50;;;14.98;;
21315;SDS011;10817;55.820;13.030;2022-12-18T10:11:14;25.83;;;12.38;;
21315;SDS011;10817;55.820;13.030;2022-12-18T10:13:49;24.70;;;11.57;;
21315;SDS011;10817;55.820;13.030;2022-12-18T10:16:24;28.10;;;12.73;;
21315;SDS011;10817;55.820;13.030;2022-12-18T10:19:03;23.30;;;11.73;;
21315;SDS011;10817;55.820;13.030;2022-12-18T10:21:44;28.15;;;12.18;;
21315;SDS011;10817;55.820;13.030;2022-12-18T10:24:19;29.85;;;12.55;;
21315;SDS011;10817;55.820;13.030;2022-12-18T10:26:54;24.33;;;10.82;;
21315;SDS011;10817;55.820;13.030;2022-12-18T10:29:26;27.42;;;12.48;;
21315;SDS011;10817;55.820;13.030;2022-12-18T10:31:54;22.23;;;11.43;;
21315;SDS011;10817;55.820;13.030;2022-12-18T10:34:21;25.75;;;10.77;;
21315;SDS011;10817;55.820;13.030;2022-12-18T10:36:47;19.90;;;10.55;;
21315;SDS011;10817;55.820;13.030;2022-12-18T10:39:15;21.50;;;11.10;;
21315;SDS011;10817;55.820;13.030;2022-12-18T10:41:45;20.63;;;10.18;;
21315;SDS011;10817;55.820;13.030;2022-12-18T10:44:16;26.65;;;11.07;;
21315;SDS011;10817;55.820;13.030;2022-12-18T10:46:45;23.60;;;11.30;;
21315;SDS011;10817;55.820;13.030;2022-12-18T10:49:21;20.58;;;10.80;;
21315;SDS011;10817;55.820;13.030;2022-12-18T10:51:51;20.98;;;10.77;;
21315;SDS011;10817;55.820;13.030;2022-12-18T10:54:32;24.73;;;10.57;;
21315;SDS011;10817;55.820;13.030;2022-12-18T10:57:13;25.02;;;10.63;;
21315;SDS011;10817;55.820;13.030;2022-12-18T10:59:50;21.58;;;10.38;;
21315;SDS011;10817;55.820;13.030;2022-12-18T11:02:25;19.80;;;9.18;;
21315;SDS011;10817;55.820;13.030;2022-12-18T11:04:54;22.13;;;10.00;;
21315;SDS011;10817;55.820;13.030;2022-12-18T11:07:20;25.73;;;10.93;;
21315;SDS011;10817;55.820;13.030;2022-12-18T11:09:59;21.17;;;9.07;;
21315;SDS011;10817;55.820;13.030;2022-12-18T11:12:29;21.85;;;10.65;;
21315;SDS011;10817;55.820;13.030;2022-12-18T11:14:57;20.88;;;9.65;;
21315;SDS011;10817;55.820;13.030;2022-12-18T11:17:27;20.50;;;9.45;;
21315;SDS011;10817;55.820;13.030;2022-12-18T11:19:56;17.13;;;9.30;;
21315;SDS011;10817;55.820;13.030;2022-12-18T11:22:24;15.75;;;8.18;;
21315;SDS011;10817;55.820;13.030;2022-12-18T11:24:55;19.52;;;9.85;;
21315;SDS011;10817;55.820;13.030;2022-12-18T11:27:25;17.85;;;8.82;;
21315;SDS011;10817;55.820;13.030;2022-12-18T11:30:06;18.80;;;8.82;;
21315;SDS011;10817;55.820;13.030;2022-12-18T11:32:35;16.38;;;8.85;;
21315;SDS011;10817;55.820;13.030;2022-12-18T11:35:10;16.08;;;7.40;;
21315;SDS011;10817;55.820;13.030;2022-12-18T11:37:43;18.80;;;8.65;;
21315;SDS011;10817;55.820;13.030;2022-12-18T11:40:16;21.10;;;8.02;;
21315;SDS011;10817;55.820;13.030;2022-12-18T11:42:47;14.68;;;6.95;;
21315;SDS011;10817;55.820;13.030;2022-12-18T11:45:22;16.80;;;7.60;;
21315;SDS011;10817;55.820;13.030;2022-12-18T11:47:54;15.20;;;8.25;;
21315;SDS011;10817;55.820;13.030;2022-12-18T11:50:25;16.90;;;7.70;;
21315;SDS011;10817;55.820;13.030;2022-12-18T11:52:56;19.25;;;7.57;;
21315;SDS011;10817;55.820;13.030;2022-12-18T11:55:27;14.57;;;7.07;;
21315;SDS011;10817;55.820;13.030;2022-12-18T11:58:02;14.05;;;6.22;;
21315;SDS011;10817;55.820;13.030;2022-12-18T12:00:37;13.00;;;6.85;;
21315;SDS011;10817;55.820;13.030;2022-12-18T12:03:23;18.23;;;8.70;;
21315;SDS011;10817;55.820;13.030;2022-12-18T12:06:05;14.27;;;7.32;;
21315;SDS011;10817;55.820;13.030;2022-12-18T12:08:44;15.63;;;7.85;;
21315;SDS011;10817;55.820;13.030;2022-12-18T12:11:27;18.73;;;8.05;;
21315;SDS011;10817;55.820;13.030;2022-12-18T12:14:14;21.13;;;7.43;;
21315;SDS011;10817;55.820;13.030;2022-12-18T12:16:55;16.60;;;7.57;;
21315;SDS011;10817;55.820;13.030;2022-12-18T12:19:29;13.68;;;7.50;;
21315;SDS011;10817;55.820;13.030;2022-12-18T12:22:03;13.48;;;7.22;;
21315;SDS011;10817;55.820;13.030;2022-12-18T12:24:38;14.85;;;6.43;;
21315;SDS011;10817;55.820;13.030;2022-12-18T12:27:18;14.35;;;7.82;;
21315;SDS011;10817;55.820;13.030;2022-12-18T12:29:57;13.65;;;7.57;;
21315;SDS011;10817;55.820;13.030;2022-12-18T12:32:43;14.73;;;7.30;;
21315;SDS011;10817;55.820;13.030;2022-12-18T12:35:23;15.20;;;7.88;;
21315;SDS011;10817;55.820;13.030;2022-12-18T12:38:01;15.18;;;7.45;;
21315;SDS011;10817;55.820;13.030;2022-12-18T12:40:35;16.35;;;7.90;;
21315;SDS011;10817;55.820;13.030;2022-12-18T12:43:10;15.30;;;7.40;;
21315;SDS011;10817;55.820;13.030;2022-12-18T12:45:46;16.02;;;7.68;;
21315;SDS011;10817;55.820;13.030;2022-12-18T12:48:19;18.45;;;7.82;;
21315;SDS011;10817;55.820;13.030;2022-12-18T12:50:51;12.57;;;6.68;;
21315;SDS011;10817;55.820;13.030;2022-12-18T12:53:22;13.35;;;6.93;;
21315;SDS011;10817;55.820;13.030;2022-12-18T12:55:52;15.68;;;7.85;;
21315;SDS011;10817;55.820;13.030;2022-12-18T12:58:25;19.40;;;7.22;;
21315;SDS011;10817;55.820;13.030;2022-12-18T13:01:01;12.85;;;6.75;;
21315;SDS011;10817;55.820;13.030;2022-12-18T13:03:41;13.20;;;7.00;;
21315;SDS011;10817;55.820;13.030;2022-12-18T13:06:14;18.30;;;7.03;;
21315;SDS011;10817;55.820;13.030;2022-12-18T13:08:51;17.35;;;7.57;;
21315;SDS011;10817;55.820;13.030;2022-12-18T13:11:30;15.52;;;7.15;;
21315;SDS011;10817;55.820;13.030;2022-12-18T13:14:26;14.80;;;7.50;;
21315;SDS011;10817;55.820;13.030;2022-12-18T13:17:14;17.15;;;7.40;;
21315;SDS011;10817;55.820;13.030;2022-12-18T13:20:02;16.80;;;7.05;;
21315;SDS011;10817;55.820;13.030;2022-12-18T13:22:34;20.83;;;7.88;;
21315;SDS011;10817;55.820;13.030;2022-12-18T13:25:02;17.20;;;8.00;;
21315;SDS011;10817;55.820;13.030;2022-12-18T13:28:04;17.70;;;8.85;;
21315;SDS011;10817;55.820;13.030;2022-12-18T13:36:15;15.75;;;8.05;;
21315;SDS011;10817;55.820;13.030;2022-12-18T13:39:09;15.23;;;7.82;;
21315;SDS011;10817;55.820;13.030;2022-12-18T13:41:37;16.63;;;7.78;;
21315;SDS011;10817;55.820;13.030;2022-12-18T13:44:10;21.02;;;8.07;;
21315;SDS011;10817;55.820;13.030;2022-12-18T13:46:44;15.60;;;8.07;;
21315;SDS011;10817;55.820;13.030;2022-12-18T13:49:19;21.98;;;8.82;;
21315;SDS011;10817;55.820;13.030;2022-12-18T13:51:50;19.25;;;8.48;;
21315;SDS011;10817;55.820;13.030;2022-12-18T13:54:18;14.70;;;8.23;;
21315;SDS011;10817;55.820;13.030;2022-12-18T13:56:48;19.73;;;8.18;;
21315;SDS011;10817;55.820;13.030;2022-12-18T13:59:16;15.43;;;7.60;;
21315;SDS011;10817;55.820;13.030;2022-12-18T14:01:47;17.17;;;8.18;;
21315;SDS011;10817;55.820;13.030;2022-12-18T14:04:21;15.27;;;7.55;;
21315;SDS011;10817;55.820;13.030;2022-12-18T14:06:51;14.40;;;7.90;;
21315;SDS011;10817;55.820;13.030;2022-12-18T14:09:23;17.42;;;8.07;;
21315;SDS011;10817;55.820;13.030;2022-12-18T14:11:53;18.08;;;8.75;;
21315;SDS011;10817;55.820;13.030;2022-12-18T14:14:43;19.15;;;7.80;;
21315;SDS011;10817;55.820;13.030;2022-12-18T14:17:13;16.75;;;7.93;;
21315;SDS011;10817;55.820;13.030;2022-12-18T14:19:41;16.27;;;7.80;;
21315;SDS011;10817;55.820;13.030;2022-12-18T14:22:13;18.25;;;8.00;;
21315;SDS011;10817;55.820;13.030;2022-12-18T14:24:42;17.95;;;8.18;;
21315;SDS011;10817;55.820;13.030;2022-12-18T14:27:17;14.07;;;7.47;;
21315;SDS011;10817;55.820;13.030;2022-12-18T14:29:48;18.00;;;7.45;;
21315;SDS011;10817;55.820;13.030;2022-12-18T14:32:17;14.38;;;6.80;;
21315;SDS011;10817;55.820;13.030;2022-12-18T14:34:46;15.95;;;7.60;;
21315;SDS011;10817;55.820;13.030;2022-12-18T14:37:14;15.80;;;6.45;;
21315;SDS011;10817;55.820;13.030;2022-12-18T14:39:51;14.05;;;7.15;;
21315;SDS011;10817;55.820;13.030;2022-12-18T14:42:20;14.25;;;6.53;;
21315;SDS011;10817;55.820;13.030;2022-12-18T14:44:47;19.65;;;6.70;;
21315;SDS011;10817;55.820;13.030;2022-12-18T14:47:14;14.82;;;6.40;;